Time;durP1;ratioP1;P1;durP2;ratioP2;P2;SDS_P1;SDS_P2;PMS_P1;PMS_P2;Temp;Humidity;BMP_temperature;BMP_pressure;BME280_temperature;BME280_humidity;BME280_pressure;Samples;Min_cycle;Max_cycle;Signal;HPM_P1;HPM_P2
2023/01/09 00:00:14;;;;;;;2.38;0.60;;;;;;;;;;5034765;28;20045;-78
2023/01/09 00:02:40;;;;;;;1.48;0.40;;;;;;;;;;5034944;28;20033;-79
2023/01/09 00:05:10;;;;;;;0.90;0.40;;;;;;;;;;5034837;28;20041;-78
2023/01/09 00:07:37;;;;;;;0.47;0.30;;;;;;;;;;5034949;28;20083;-79
2023/01/09 00:10:03;;;;;;;2.35;0.55;;;;;;;;;;5034278;28;20124;-79
2023/01/09 00:12:29;;;;;;;2.08;0.60;;;;;;;;;;5034853;28;20041;-78
2023/01/09 00:14:55;;;;;;;1.60;0.40;;;;;;;;;;5034309;28;20041;-78
2023/01/09 00:17:22;;;;;;;1.38;0.65;;;;;;;;;;5034776;28;20047;-79
2023/01/09 00:19:48;;;;;;;2.20;0.57;;;;;;;;;;5034212;28;20542;-79
2023/01/09 00:22:14;;;;;;;3.25;0.65;;;;;;;;;;5033832;28;20049;-79
2023/01/09 00:24:40;;;;;;;2.00;0.60;;;;;;;;;;5034951;28;20058;-78
2023/01/09 00:27:06;;;;;;;2.03;0.52;;;;;;;;;;5034891;28;20037;-78
2023/01/09 00:29:32;;;;;;;0.93;0.50;;;;;;;;;;5034357;28;20045;-79
2023/01/09 00:31:58;;;;;;;1.38;0.38;;;;;;;;;;5034719;28;20121;-79
2023/01/09 00:34:25;;;;;;;3.05;0.68;;;;;;;;;;5034334;28;20128;-79
2023/01/09 00:36:55;;;;;;;4.70;0.70;;;;;;;;;;5034682;28;20041;-79
2023/01/09 00:39:24;;;;;;;4.45;0.70;;;;;;;;;;5034462;28;20191;-79
2023/01/09 00:41:52;;;;;;;1.60;0.60;;;;;;;;;;5034864;28;20140;-79
2023/01/09 00:44:47;;;;;;;2.85;0.60;;;;;;;;;;5034633;28;20131;-79
2023/01/09 00:47:18;;;;;;;3.25;0.73;;;;;;;;;;5022698;28;20072;-78
2023/01/09 00:49:44;;;;;;;1.80;0.60;;;;;;;;;;5038183;28;20049;-79
2023/01/09 00:52:12;;;;;;;4.07;0.88;;;;;;;;;;5038656;28;20116;-79
2023/01/09 00:54:39;;;;;;;3.45;0.57;;;;;;;;;;5038378;28;20041;-79
2023/01/09 00:57:06;;;;;;;1.70;0.60;;;;;;;;;;5038099;28;20504;-79
2023/01/09 00:59:32;;;;;;;1.35;0.68;;;;;;;;;;5038335;28;20045;-79
2023/01/09 01:01:58;;;;;;;1.52;0.50;;;;;;;;;;5037046;28;20044;-79
2023/01/09 01:09:54;;;;;;;5.28;0.90;;;;;;;;;;5037536;28;20072;-78
2023/01/09 01:12:20;;;;;;;3.38;0.73;;;;;;;;;;5038081;28;20484;-77
2023/01/09 01:14:46;;;;;;;4.57;1.13;;;;;;;;;;5038026;28;20136;-78
2023/01/09 01:17:12;;;;;;;5.50;0.73;;;;;;;;;;5038006;28;20072;-78
2023/01/09 01:19:38;;;;;;;8.70;0.90;;;;;;;;;;5037642;28;20107;-78
2023/01/09 01:22:04;;;;;;;4.78;0.80;;;;;;;;;;5037806;28;20116;-79
2023/01/09 01:24:31;;;;;;;8.93;1.13;;;;;;;;;;5037990;28;20061;-78
2023/01/09 01:26:57;;;;;;;3.80;0.95;;;;;;;;;;5037928;28;20044;-78
2023/01/09 01:29:23;;;;;;;3.13;0.90;;;;;;;;;;5037690;28;20041;-78
2023/01/09 01:31:50;;;;;;;4.68;0.90;;;;;;;;;;5037474;28;20045;-78
2023/01/09 01:34:16;;;;;;;6.53;1.00;;;;;;;;;;5037817;28;20136;-79
2023/01/09 01:36:43;;;;;;;4.22;1.00;;;;;;;;;;5037621;28;20045;-79
2023/01/09 01:39:09;;;;;;;3.40;0.75;;;;;;;;;;5037280;28;20052;-79
2023/01/09 01:41:36;;;;;;;3.40;0.80;;;;;;;;;;5037852;28;20484;-79
2023/01/09 01:44:04;;;;;;;6.65;1.65;;;;;;;;;;5037722;28;20072;-79
2023/01/09 01:46:31;;;;;;;6.40;1.13;;;;;;;;;;5037719;28;20037;-79
2023/01/09 01:49:07;;;;;;;5.97;1.67;;;;;;;;;;5036071;28;20041;-79
2023/01/09 01:51:36;;;;;;;7.90;1.27;;;;;;;;;;5036443;28;20365;-78
2023/01/09 01:54:05;;;;;;;7.15;0.90;;;;;;;;;;5037038;28;20045;-78
2023/01/09 01:56:40;;;;;;;5.07;1.02;;;;;;;;;;5037573;28;20095;-78
2023/01/09 01:59:21;;;;;;;3.75;1.20;;;;;;;;;;5036315;28;20525;-79
2023/01/09 02:01:51;;;;;;;8.60;1.08;;;;;;;;;;5037747;28;20083;-78
2023/01/09 02:04:17;;;;;;;3.63;1.00;;;;;;;;;;5036971;28;20045;-78
2023/01/09 02:06:44;;;;;;;5.53;0.98;;;;;;;;;;5037386;28;20045;-78
2023/01/09 02:09:14;;;;;;;3.92;1.05;;;;;;;;;;5036521;28;20045;-78
2023/01/09 02:11:47;;;;;;;3.45;0.77;;;;;;;;;;5037029;28;20049;-78
2023/01/09 02:14:14;;;;;;;3.83;1.05;;;;;;;;;;5037132;28;20428;-78
2023/01/09 02:16:59;;;;;;;3.42;0.50;;;;;;;;;;5036652;28;20033;-78
2023/01/09 02:19:49;;;;;;;2.33;0.63;;;;;;;;;;5036881;28;20034;-78
2023/01/09 02:22:15;;;;;;;2.87;0.60;;;;;;;;;;5037278;28;20048;-78
2023/01/09 02:24:44;;;;;;;3.08;0.55;;;;;;;;;;5036725;28;20102;-79
2023/01/09 02:27:25;;;;;;;3.85;0.93;;;;;;;;;;5036422;28;20083;-79
2023/01/09 02:30:06;;;;;;;3.33;0.75;;;;;;;;;;5036622;28;20056;-79
2023/01/09 02:32:35;;;;;;;6.37;1.03;;;;;;;;;;5036198;28;20038;-79
2023/01/09 02:35:16;;;;;;;4.70;0.82;;;;;;;;;;5035983;28;20288;-79
2023/01/09 02:37:45;;;;;;;6.10;0.98;;;;;;;;;;5036485;28;20045;-80
2023/01/09 02:40:17;;;;;;;5.13;1.10;;;;;;;;;;5034873;28;20034;-79
2023/01/09 02:42:44;;;;;;;6.07;1.15;;;;;;;;;;5036125;28;20045;-79
2023/01/09 02:45:10;;;;;;;5.70;1.02;;;;;;;;;;5036080;28;20033;-79
2023/01/09 02:47:40;;;;;;;6.72;1.33;;;;;;;;;;5036478;28;20102;-79
2023/01/09 02:50:09;;;;;;;7.30;1.42;;;;;;;;;;5035796;28;20049;-79
2023/01/09 02:52:44;;;;;;;5.32;1.05;;;;;;;;;;5034744;28;20476;-79
2023/01/09 02:55:21;;;;;;;5.93;1.20;;;;;;;;;;5035880;28;20033;-79
2023/01/09 02:57:53;;;;;;;4.72;1.00;;;;;;;;;;5036081;28;20042;-79
2023/01/09 03:00:27;;;;;;;8.27;1.52;;;;;;;;;;5035494;28;20047;-79
2023/01/09 03:02:57;;;;;;;6.60;1.20;;;;;;;;;;5035724;28;20045;-79
2023/01/09 03:05:50;;;;;;;5.13;1.38;;;;;;;;;;5035755;28;20068;-78
2023/01/09 03:08:19;;;;;;;6.05;1.48;;;;;;;;;;5032397;28;20083;-78
2023/01/09 03:10:47;;;;;;;6.80;1.10;;;;;;;;;;5035472;28;20045;-78
2023/01/09 03:13:16;;;;;;;6.68;1.67;;;;;;;;;;5035749;28;20044;-78
2023/01/09 03:15:43;;;;;;;6.72;1.00;;;;;;;;;;5035487;28;20032;-78
2023/01/09 03:18:10;;;;;;;6.38;1.27;;;;;;;;;;5035331;28;20041;-78
2023/01/09 03:20:37;;;;;;;5.63;1.00;;;;;;;;;;5035599;28;20139;-78
2023/01/09 03:23:05;;;;;;;8.48;1.17;;;;;;;;;;5035115;28;20052;-77
2023/01/09 03:25:31;;;;;;;3.92;1.27;;;;;;;;;;5035763;28;20124;-78
2023/01/09 03:27:59;;;;;;;4.82;0.82;;;;;;;;;;5035804;28;20042;-77
2023/01/09 03:30:26;;;;;;;6.10;0.90;;;;;;;;;;5035801;28;20160;-78
2023/01/09 03:32:52;;;;;;;5.95;1.50;;;;;;;;;;5035625;28;20143;-77
2023/01/09 03:35:18;;;;;;;8.05;1.30;;;;;;;;;;5035442;28;20033;-78
2023/01/09 03:37:44;;;;;;;6.05;1.42;;;;;;;;;;5035122;28;20128;-78
2023/01/09 03:40:10;;;;;;;6.50;1.05;;;;;;;;;;5035362;28;20064;-78
2023/01/09 03:42:37;;;;;;;10.43;1.52;;;;;;;;;;5035376;28;20041;-78
2023/01/09 03:45:03;;;;;;;3.78;0.80;;;;;;;;;;5035025;28;20515;-78
2023/01/09 03:47:29;;;;;;;3.92;0.60;;;;;;;;;;5035505;28;20038;-78
2023/01/09 03:49:56;;;;;;;2.83;0.65;;;;;;;;;;5035089;28;20041;-78
2023/01/09 03:52:22;;;;;;;1.92;0.50;;;;;;;;;;5035531;28;20046;-78
2023/01/09 03:54:48;;;;;;;1.35;0.30;;;;;;;;;;5035710;28;20071;-78
2023/01/09 03:57:14;;;;;;;2.63;0.50;;;;;;;;;;5034847;28;20049;-78
2023/01/09 03:59:40;;;;;;;2.08;0.35;;;;;;;;;;5035086;28;20037;-78
2023/01/09 04:02:06;;;;;;;0.75;0.22;;;;;;;;;;5035336;28;20076;-78
2023/01/09 04:04:32;;;;;;;2.67;0.40;;;;;;;;;;5034998;28;20045;-78
2023/01/09 04:06:58;;;;;;;1.45;0.30;;;;;;;;;;5035036;28;20072;-78
2023/01/09 04:09:25;;;;;;;1.17;0.30;;;;;;;;;;5034680;28;20091;-79
2023/01/09 04:11:51;;;;;;;1.40;0.60;;;;;;;;;;5034203;28;20072;-79
2023/01/09 04:14:17;;;;;;;3.40;0.60;;;;;;;;;;5034884;28;20103;-79
2023/01/09 04:16:43;;;;;;;2.05;0.55;;;;;;;;;;5034588;28;20046;-79
2023/01/09 04:19:09;;;;;;;2.10;0.80;;;;;;;;;;5034779;28;20049;-79
2023/01/09 04:21:35;;;;;;;1.13;0.63;;;;;;;;;;5033990;28;20037;-79
2023/01/09 04:24:01;;;;;;;2.83;0.70;;;;;;;;;;5034466;28;20061;-78
2023/01/09 04:26:28;;;;;;;3.35;0.70;;;;;;;;;;5034465;28;20384;-78
2023/01/09 04:28:54;;;;;;;6.15;0.75;;;;;;;;;;5034389;28;20072;-78
2023/01/09 04:31:20;;;;;;;6.57;1.00;;;;;;;;;;5034701;28;20518;-78
2023/01/09 04:33:46;;;;;;;5.30;0.80;;;;;;;;;;5034657;28;20154;-78
2023/01/09 04:36:12;;;;;;;5.13;0.73;;;;;;;;;;5034366;28;20091;-78
2023/01/09 04:38:39;;;;;;;4.32;1.08;;;;;;;;;;5034430;28;20176;-78
2023/01/09 04:41:05;;;;;;;6.20;1.15;;;;;;;;;;5034947;28;20088;-78
2023/01/09 04:43:31;;;;;;;5.38;0.90;;;;;;;;;;5033061;28;20037;-78
2023/01/09 04:45:57;;;;;;;3.33;0.77;;;;;;;;;;5034534;28;20488;-77
2023/01/09 04:48:23;;;;;;;3.50;0.95;;;;;;;;;;5034479;28;20100;-77
2023/01/09 04:50:49;;;;;;;6.80;0.90;;;;;;;;;;5034233;28;20095;-78
2023/01/09 04:53:15;;;;;;;11.63;1.73;;;;;;;;;;5034683;28;20084;-77
2023/01/09 04:55:42;;;;;;;4.22;0.60;;;;;;;;;;5034211;28;20037;-78
2023/01/09 04:58:08;;;;;;;2.55;0.77;;;;;;;;;;5034234;28;20041;-77
2023/01/09 05:00:35;;;;;;;4.10;0.70;;;;;;;;;;5035000;28;20045;-78
2023/01/09 05:03:01;;;;;;;4.75;0.95;;;;;;;;;;5034664;28;20046;-77
2023/01/09 05:05:29;;;;;;;3.08;0.77;;;;;;;;;;5034937;28;20045;-77
2023/01/09 05:07:55;;;;;;;3.28;0.60;;;;;;;;;;5034220;28;20045;-79
2023/01/09 05:10:21;;;;;;;4.82;1.88;;;;;;;;;;5034301;28;20143;-79
2023/01/09 05:12:47;;;;;;;4.65;1.38;;;;;;;;;;5034219;28;20049;-79
2023/01/09 05:15:13;;;;;;;10.27;1.70;;;;;;;;;;5034741;28;20034;-80
2023/01/09 05:17:39;;;;;;;4.70;1.30;;;;;;;;;;5034222;28;20088;-79
2023/01/09 05:20:06;;;;;;;5.03;0.88;;;;;;;;;;5034265;28;20052;-79
2023/01/09 05:22:32;;;;;;;5.72;0.85;;;;;;;;;;5033180;28;20531;-80
2023/01/09 05:24:58;;;;;;;5.38;1.10;;;;;;;;;;5066750;28;20496;-80
2023/01/09 05:27:26;;;;;;;7.97;1.30;;;;;;;;;;5048092;28;20033;-80
2023/01/09 05:29:52;;;;;;;4.35;0.93;;;;;;;;;;5064789;28;20128;-79
2023/01/09 05:32:18;;;;;;;8.18;0.85;;;;;;;;;;5043766;28;20041;-80
2023/01/09 05:34:44;;;;;;;4.30;0.88;;;;;;;;;;5056021;28;20037;-77
2023/01/09 05:37:10;;;;;;;2.38;0.60;;;;;;;;;;5044319;28;20041;-77
2023/01/09 05:39:36;;;;;;;4.40;1.20;;;;;;;;;;5037330;28;20060;-78
2023/01/09 05:42:03;;;;;;;5.15;1.08;;;;;;;;;;5037878;28;20045;-77
2023/01/09 05:44:29;;;;;;;5.22;0.90;;;;;;;;;;5037406;28;20037;-77
2023/01/09 05:46:55;;;;;;;5.25;1.60;;;;;;;;;;5036831;28;20042;-77
2023/01/09 05:49:21;;;;;;;4.78;1.08;;;;;;;;;;5037262;28;20045;-78
2023/01/09 05:51:47;;;;;;;5.57;1.55;;;;;;;;;;5069320;28;20037;-77
2023/01/09 05:54:13;;;;;;;6.40;1.13;;;;;;;;;;5048361;28;20045;-77
2023/01/09 05:56:41;;;;;;;6.68;1.25;;;;;;;;;;5043628;28;20041;-78
2023/01/09 05:59:07;;;;;;;7.20;1.73;;;;;;;;;;5053779;28;20491;-78
2023/01/09 06:01:33;;;;;;;8.30;1.05;;;;;;;;;;5055440;28;20044;-78
2023/01/09 06:03:59;;;;;;;9.75;1.50;;;;;;;;;;5047169;28;20045;-78
2023/01/09 06:06:25;;;;;;;9.73;1.48;;;;;;;;;;5047581;28;20040;-79
2023/01/09 06:08:52;;;;;;;11.80;2.25;;;;;;;;;;5056701;28;20033;-78
2023/01/09 06:11:18;;;;;;;7.20;1.70;;;;;;;;;;5049164;28;20045;-78
2023/01/09 06:13:44;;;;;;;9.45;1.92;;;;;;;;;;5065424;28;20044;-78
2023/01/09 06:16:10;;;;;;;13.68;2.40;;;;;;;;;;5037142;28;20037;-78
2023/01/09 06:18:36;;;;;;;18.88;2.03;;;;;;;;;;5036600;28;20072;-78
2023/01/09 06:21:02;;;;;;;12.13;1.65;;;;;;;;;;5035526;28;20086;-79
2023/01/09 06:23:28;;;;;;;11.63;1.63;;;;;;;;;;5036483;28;20061;-77
2023/01/09 06:25:55;;;;;;;12.25;2.03;;;;;;;;;;5035106;28;20064;-78
2023/01/09 06:28:21;;;;;;;8.27;2.13;;;;;;;;;;5036300;28;20139;-78
2023/01/09 06:30:50;;;;;;;10.15;1.88;;;;;;;;;;5028718;28;20137;-77
2023/01/09 06:33:17;;;;;;;9.05;1.55;;;;;;;;;;5015473;28;20057;-78
2023/01/09 06:35:43;;;;;;;14.13;1.85;;;;;;;;;;5016157;28;20040;-77
2023/01/09 06:38:09;;;;;;;10.48;1.42;;;;;;;;;;5016236;28;20200;-77
2023/01/09 06:40:35;;;;;;;7.50;1.65;;;;;;;;;;5028221;28;20048;-78
2023/01/09 06:43:01;;;;;;;14.00;2.22;;;;;;;;;;5035761;28;20050;-78
2023/01/09 06:45:27;;;;;;;12.80;1.80;;;;;;;;;;5035628;28;20065;-78
2023/01/09 06:47:53;;;;;;;8.32;1.58;;;;;;;;;;5035420;28;20042;-77
2023/01/09 06:50:20;;;;;;;11.00;1.58;;;;;;;;;;5037070;28;20082;-77
2023/01/09 06:52:46;;;;;;;8.55;1.42;;;;;;;;;;5038037;28;20052;-77
2023/01/09 06:55:12;;;;;;;10.23;1.40;;;;;;;;;;5026052;28;20057;-77
2023/01/09 06:57:38;;;;;;;9.63;1.40;;;;;;;;;;5028278;28;20080;-76
2023/01/09 07:00:04;;;;;;;16.02;2.35;;;;;;;;;;5024783;28;20137;-78
2023/01/09 07:02:30;;;;;;;7.88;1.92;;;;;;;;;;5031678;28;20052;-77
2023/01/09 07:04:56;;;;;;;10.90;2.15;;;;;;;;;;5034779;28;20044;-78
2023/01/09 07:07:23;;;;;;;14.75;2.58;;;;;;;;;;5035268;28;20068;-76
2023/01/09 07:09:49;;;;;;;11.23;2.40;;;;;;;;;;5035276;28;20069;-74
2023/01/09 07:12:15;;;;;;;9.60;2.00;;;;;;;;;;5035711;28;20050;-74
2023/01/09 07:14:41;;;;;;;12.82;2.08;;;;;;;;;;5035610;28;20025;-74
2023/01/09 07:17:07;;;;;;;18.25;2.53;;;;;;;;;;5035356;28;20104;-75
2023/01/09 07:19:33;;;;;;;18.65;2.63;;;;;;;;;;5035025;28;20052;-75
2023/01/09 07:22:00;;;;;;;11.60;2.30;;;;;;;;;;5035395;28;20049;-75
2023/01/09 07:24:26;;;;;;;10.73;2.70;;;;;;;;;;5035121;28;20156;-75
2023/01/09 07:26:52;;;;;;;13.82;2.83;;;;;;;;;;5035916;28;20045;-76
2023/01/09 07:29:18;;;;;;;18.40;2.95;;;;;;;;;;5035478;28;20043;-75
2023/01/09 07:31:44;;;;;;;12.52;2.40;;;;;;;;;;5035282;28;20128;-74
2023/01/09 07:34:10;;;;;;;19.13;2.78;;;;;;;;;;5035608;28;20041;-74
2023/01/09 07:36:36;;;;;;;13.02;2.03;;;;;;;;;;5035683;28;20123;-74
2023/01/09 07:39:03;;;;;;;20.33;3.58;;;;;;;;;;5034980;28;20044;-74
2023/01/09 07:41:29;;;;;;;13.35;2.22;;;;;;;;;;5035374;28;20041;-75
2023/01/09 07:43:56;;;;;;;7.43;1.77;;;;;;;;;;5035231;28;20542;-76
2023/01/09 07:46:22;;;;;;;11.50;2.30;;;;;;;;;;5035571;28;20046;-75
2023/01/09 07:48:48;;;;;;;11.57;1.75;;;;;;;;;;5035160;28;20064;-75
2023/01/09 07:51:14;;;;;;;14.43;2.00;;;;;;;;;;5035795;28;20037;-74
2023/01/09 07:53:40;;;;;;;10.00;1.83;;;;;;;;;;5035285;28;20042;-74
2023/01/09 07:56:06;;;;;;;11.48;2.10;;;;;;;;;;5034395;28;20045;-74
2023/01/09 07:58:33;;;;;;;9.50;2.33;;;;;;;;;;5034891;28;20045;-76
2023/01/09 08:00:59;;;;;;;12.35;1.45;;;;;;;;;;5035051;28;20041;-74
2023/01/09 08:03:25;;;;;;;5.20;1.20;;;;;;;;;;5035165;28;20065;-74
2023/01/09 08:05:52;;;;;;;8.88;1.38;;;;;;;;;;5034704;28;20045;-75
2023/01/09 08:08:18;;;;;;;6.97;1.10;;;;;;;;;;5034675;28;20037;-74
2023/01/09 08:10:44;;;;;;;7.28;1.15;;;;;;;;;;5034668;28;20077;-74
2023/01/09 08:13:10;;;;;;;7.22;2.17;;;;;;;;;;5035014;28;20045;-75
2023/01/09 08:15:36;;;;;;;8.93;1.27;;;;;;;;;;5034570;28;20072;-76
2023/01/09 08:18:02;;;;;;;7.03;1.20;;;;;;;;;;5034501;28;20045;-76
2023/01/09 08:20:28;;;;;;;10.13;1.45;;;;;;;;;;5033534;28;20369;-74
2023/01/09 08:22:55;;;;;;;7.30;1.45;;;;;;;;;;5034876;28;20052;-75
2023/01/09 08:25:22;;;;;;;9.88;1.98;;;;;;;;;;5034744;28;20507;-74
2023/01/09 08:27:48;;;;;;;4.78;1.08;;;;;;;;;;5034738;28;20041;-74
2023/01/09 08:30:15;;;;;;;8.68;1.63;;;;;;;;;;5034375;28;20045;-74
2023/01/09 08:32:41;;;;;;;6.13;1.23;;;;;;;;;;5034969;28;20046;-74
2023/01/09 08:35:07;;;;;;;2.75;0.73;;;;;;;;;;5034955;28;20033;-74
2023/01/09 08:37:33;;;;;;;3.92;0.80;;;;;;;;;;5034215;28;20041;-74
2023/01/09 08:39:59;;;;;;;4.25;0.75;;;;;;;;;;5034612;28;20488;-75
2023/01/09 08:47:56;;;;;;;2.15;0.77;;;;;;;;;;5034044;28;20148;-77
2023/01/09 08:50:23;;;;;;;4.88;1.50;;;;;;;;;;5034727;28;20076;-76
2023/01/09 08:52:49;;;;;;;4.78;1.00;;;;;;;;;;5034165;28;20135;-76
2023/01/09 08:55:15;;;;;;;4.32;2.10;;;;;;;;;;5034516;28;20120;-76
2023/01/09 08:57:49;;;;;;;3.15;1.05;;;;;;;;;;5034664;28;20029;-76
2023/01/09 09:00:15;;;;;;;6.50;0.90;;;;;;;;;;5034184;28;20072;-77
2023/01/09 09:02:41;;;;;;;5.55;1.80;;;;;;;;;;5034425;28;20095;-77
2023/01/09 09:05:08;;;;;;;5.28;2.35;;;;;;;;;;5034136;28;20115;-75
2023/01/09 09:07:34;;;;;;;4.00;1.48;;;;;;;;;;5034578;28;20512;-76
2023/01/09 09:10:00;;;;;;;3.80;1.42;;;;;;;;;;5038110;28;20042;-76
2023/01/09 09:12:26;;;;;;;4.63;1.50;;;;;;;;;;5038688;28;20053;-74
2023/01/09 09:15:11;;;;;;;7.45;1.73;;;;;;;;;;5038105;28;20038;-74
2023/01/09 09:17:37;;;;;;;7.00;1.30;;;;;;;;;;5038578;28;20041;-77
2023/01/09 09:20:04;;;;;;;7.93;1.92;;;;;;;;;;5037739;28;20175;-76
2023/01/09 09:22:30;;;;;;;7.47;1.92;;;;;;;;;;5038012;28;20053;-74
2023/01/09 09:24:56;;;;;;;8.20;1.98;;;;;;;;;;5038000;28;20088;-74
2023/01/09 09:27:22;;;;;;;8.70;1.40;;;;;;;;;;5037857;28;20052;-74
2023/01/09 09:29:48;;;;;;;7.10;1.75;;;;;;;;;;5037480;28;20037;-76
2023/01/09 09:32:15;;;;;;;9.93;1.33;;;;;;;;;;5038123;28;20488;-76
2023/01/09 09:34:41;;;;;;;8.05;1.48;;;;;;;;;;5037698;28;20514;-76
2023/01/09 09:37:07;;;;;;;4.95;1.73;;;;;;;;;;5037531;28;20047;-76
2023/01/09 09:39:33;;;;;;;11.50;1.65;;;;;;;;;;5037379;28;20049;-76
2023/01/09 09:45:07;;;;;;;3.90;0.65;;;;;;;;;;5037186;28;20049;-76
2023/01/09 09:47:40;;;;;;;5.75;0.63;;;;;;;;;;5018333;28;20376;-77
2023/01/09 09:50:06;;;;;;;2.58;0.52;;;;;;;;;;5037990;28;20080;-76
2023/01/09 09:52:45;;;;;;;1.08;0.32;;;;;;;;;;5037585;28;20049;-75
2023/01/09 09:55:17;;;;;;;4.35;0.80;;;;;;;;;;5037388;28;20037;-75
2023/01/09 09:57:43;;;;;;;2.22;1.30;;;;;;;;;;5037071;28;20041;-76
2023/01/09 10:00:15;;;;;;;1.75;0.77;;;;;;;;;;5037113;28;20038;-76
2023/01/09 10:02:45;;;;;;;0.80;0.30;;;;;;;;;;5037481;28;20037;-76
2023/01/09 10:05:18;;;;;;;2.13;0.80;;;;;;;;;;5037512;28;20103;-76
2023/01/09 10:07:49;;;;;;;3.33;0.80;;;;;;;;;;5036945;28;20102;-77
2023/01/09 10:10:24;;;;;;;2.17;0.40;;;;;;;;;;5037361;28;20541;-77
2023/01/09 10:12:54;;;;;;;2.40;1.48;;;;;;;;;;5037188;28;20068;-77
2023/01/09 10:15:23;;;;;;;0.70;0.60;;;;;;;;;;5037550;28;20171;-77
2023/01/09 10:18:05;;;;;;;0.57;0.30;;;;;;;;;;5036950;28;20030;-75
2023/01/09 10:21:00;;;;;;;2.30;0.35;;;;;;;;;;5036579;28;20041;-74
2023/01/09 10:23:45;;;;;;;1.40;0.50;;;;;;;;;;5027356;28;20064;-74
2023/01/09 10:26:19;;;;;;;0.95;0.50;;;;;;;;;;5036779;28;20041;-74
2023/01/09 10:29:04;;;;;;;3.10;0.98;;;;;;;;;;5036417;28;20049;-74
2023/01/09 10:31:38;;;;;;;1.85;0.90;;;;;;;;;;5036907;28;20041;-74
2023/01/09 10:34:22;;;;;;;4.65;0.70;;;;;;;;;;5036465;28;20037;-77
2023/01/09 10:36:51;;;;;;;2.45;0.90;;;;;;;;;;5036542;28;20048;-75
2023/01/09 10:39:25;;;;;;;2.20;1.00;;;;;;;;;;5036078;28;20037;-77
2023/01/09 10:42:10;;;;;;;2.80;1.15;;;;;;;;;;5036192;28;20091;-74
2023/01/09 10:44:47;;;;;;;6.75;1.27;;;;;;;;;;5035884;28;20120;-74
2023/01/09 10:47:36;;;;;;;2.13;0.73;;;;;;;;;;5036704;28;20128;-76
2023/01/09 10:50:16;;;;;;;3.63;1.40;;;;;;;;;;5030201;28;20072;-75
2023/01/09 10:52:43;;;;;;;3.23;1.17;;;;;;;;;;5035564;28;20454;-75
2023/01/09 10:55:18;;;;;;;3.92;1.65;;;;;;;;;;5036221;28;20045;-75
2023/01/09 10:57:45;;;;;;;5.45;1.80;;;;;;;;;;5036130;28;20124;-77
2023/01/09 11:00:22;;;;;;;2.08;0.77;;;;;;;;;;5034553;28;20510;-76
2023/01/09 11:02:49;;;;;;;2.28;0.70;;;;;;;;;;5035986;28;20041;-76
2023/01/09 11:05:17;;;;;;;1.83;0.77;;;;;;;;;;5036038;28;20072;-76
2023/01/09 11:07:45;;;;;;;1.05;0.57;;;;;;;;;;5036027;28;20057;-75
2023/01/09 11:10:12;;;;;;;2.65;0.90;;;;;;;;;;5035632;28;20041;-75
2023/01/09 11:12:39;;;;;;;2.03;0.70;;;;;;;;;;5036147;28;20080;-75
2023/01/09 11:15:18;;;;;;;3.10;0.95;;;;;;;;;;5035846;28;20125;-75
2023/01/09 11:17:44;;;;;;;6.18;1.10;;;;;;;;;;5035742;28;20037;-74
2023/01/09 11:20:25;;;;;;;1.15;0.50;;;;;;;;;;5035191;28;20049;-74
2023/01/09 11:22:55;;;;;;;0.80;0.40;;;;;;;;;;5035524;28;20068;-76
2023/01/09 11:25:22;;;;;;;2.43;0.80;;;;;;;;;;5035875;28;20264;-76
2023/01/09 11:28:01;;;;;;;1.65;0.82;;;;;;;;;;5035025;28;20114;-76
2023/01/09 11:30:28;;;;;;;1.63;0.60;;;;;;;;;;5035190;28;20042;-76
2023/01/09 11:32:57;;;;;;;0.90;0.65;;;;;;;;;;5035657;28;20507;-76
2023/01/09 11:35:31;;;;;;;3.75;0.90;;;;;;;;;;5035182;28;20472;-77
2023/01/09 11:38:00;;;;;;;3.20;0.90;;;;;;;;;;5033434;28;20046;-76
2023/01/09 11:40:26;;;;;;;2.60;1.27;;;;;;;;;;5035374;28;20049;-75
2023/01/09 11:43:05;;;;;;;0.77;0.40;;;;;;;;;;5034895;28;20492;-74
2023/01/09 11:45:33;;;;;;;1.23;0.63;;;;;;;;;;5035224;28;20044;-74
2023/01/09 11:48:00;;;;;;;2.90;1.20;;;;;;;;;;5034890;28;20485;-74
2023/01/09 11:50:27;;;;;;;1.10;0.73;;;;;;;;;;5034505;28;20128;-76
2023/01/09 11:53:09;;;;;;;1.40;0.80;;;;;;;;;;5034851;28;20053;-76
2023/01/09 11:55:35;;;;;;;1.02;0.68;;;;;;;;;;5035151;28;20085;-76
2023/01/09 11:58:01;;;;;;;0.40;0.40;;;;;;;;;;5034830;28;20041;-76
2023/01/09 12:00:29;;;;;;;0.50;0.50;;;;;;;;;;5034367;28;20057;-76
2023/01/09 12:03:01;;;;;;;1.58;0.80;;;;;;;;;;5034923;28;20084;-76
2023/01/09 12:05:44;;;;;;;1.80;0.85;;;;;;;;;;5035080;28;20051;-75
2023/01/09 12:08:28;;;;;;;0.85;0.43;;;;;;;;;;5034910;28;20046;-74
2023/01/09 12:11:10;;;;;;;2.25;0.50;;;;;;;;;;5034901;28;20061;-74
2023/01/09 12:13:42;;;;;;;1.52;0.70;;;;;;;;;;5034472;28;20051;-75
2023/01/09 12:16:08;;;;;;;1.13;0.40;;;;;;;;;;5035130;28;20048;-75
2023/01/09 12:18:37;;;;;;;1.60;0.63;;;;;;;;;;5034792;28;20037;-75
2023/01/09 12:21:09;;;;;;;1.40;0.70;;;;;;;;;;5034523;28;20041;-75
2023/01/09 12:23:55;;;;;;;1.05;0.70;;;;;;;;;;5034531;28;20064;-75
2023/01/09 12:26:25;;;;;;;1.13;0.50;;;;;;;;;;5035015;28;20056;-76
2023/01/09 12:29:10;;;;;;;1.50;0.40;;;;;;;;;;5034753;28;20045;-76
2023/01/09 12:31:56;;;;;;;0.30;0.30;;;;;;;;;;5033162;28;20045;-76
2023/01/09 12:34:29;;;;;;;1.67;0.50;;;;;;;;;;5034524;28;20045;-76
2023/01/09 12:37:15;;;;;;;0.35;0.30;;;;;;;;;;5034947;28;20046;-76
2023/01/09 12:39:44;;;;;;;1.20;0.60;;;;;;;;;;5034673;28;20033;-76
2023/01/09 12:42:13;;;;;;;0.40;0.30;;;;;;;;;;5034663;28;20045;-76
2023/01/09 12:44:59;;;;;;;0.38;0.38;;;;;;;;;;5038371;28;20476;-76
2023/01/09 12:47:37;;;;;;;0.20;0.20;;;;;;;;;;5038760;28;20045;-76
2023/01/09 12:50:03;;;;;;;0.35;0.35;;;;;;;;;;5038248;28;20050;-77
2023/01/09 12:52:33;;;;;;;0.55;0.30;;;;;;;;;;5038642;28;20049;-77
2023/01/09 12:55:04;;;;;;;1.65;0.55;;;;;;;;;;5038845;28;20131;-77
2023/01/09 12:57:36;;;;;;;2.30;0.63;;;;;;;;;;5038535;28;20033;-76
2023/01/09 13:00:14;;;;;;;1.63;0.60;;;;;;;;;;5038769;28;20045;-74
2023/01/09 13:02:40;;;;;;;1.25;0.80;;;;;;;;;;5038392;28;20049;-74
2023/01/09 13:05:07;;;;;;;6.03;0.80;;;;;;;;;;5038346;28;20048;-74
2023/01/09 13:07:52;;;;;;;2.83;0.55;;;;;;;;;;5037782;28;20047;-77
2023/01/09 13:10:40;;;;;;;2.47;1.00;;;;;;;;;;5036854;28;20037;-75
2023/01/09 13:13:10;;;;;;;3.95;0.73;;;;;;;;;;5038123;28;20060;-76
2023/01/09 13:15:36;;;;;;;2.33;1.07;;;;;;;;;;5038072;28;20072;-75
2023/01/09 13:18:21;;;;;;;2.80;0.80;;;;;;;;;;5038119;28;20064;-74
2023/01/09 13:20:49;;;;;;;3.42;0.60;;;;;;;;;;5037712;28;20411;-75
2023/01/09 13:23:34;;;;;;;3.47;0.75;;;;;;;;;;5036410;28;20166;-78
2023/01/09 13:26:03;;;;;;;3.30;0.80;;;;;;;;;;5031059;28;20038;-78
2023/01/09 13:28:59;;;;;;;5.25;0.98;;;;;;;;;;5025416;28;20044;-81
2023/01/09 13:31:40;;;;;;;3.47;0.82;;;;;;;;;;5031968;28;20048;-77
2023/01/09 13:34:11;;;;;;;5.32;1.08;;;;;;;;;;5031222;28;20064;-76
2023/01/09 13:36:38;;;;;;;2.05;0.60;;;;;;;;;;5035230;28;20071;-76
2023/01/09 13:39:05;;;;;;;5.07;1.27;;;;;;;;;;5035086;28;20564;-78
2023/01/09 13:44:22;;;;;;;4.13;1.10;;;;;;;;;;5035640;28;20048;-77
2023/01/09 13:46:50;;;;;;;1.70;0.68;;;;;;;;;;5032548;28;20034;-77
2023/01/09 13:49:31;;;;;;;5.70;1.13;;;;;;;;;;5034163;28;20381;-77
2023/01/09 13:51:57;;;;;;;9.20;1.30;;;;;;;;;;5036163;28;20045;-77
2023/01/09 13:54:42;;;;;;;5.72;1.00;;;;;;;;;;5035187;28;20049;-77
2023/01/09 13:57:15;;;;;;;4.63;0.90;;;;;;;;;;5017131;28;20041;-76
2023/01/09 13:59:43;;;;;;;5.45;1.33;;;;;;;;;;5032643;28;20045;-77
2023/01/09 14:02:28;;;;;;;2.47;1.08;;;;;;;;;;5034225;28;20037;-76
2023/01/09 14:04:55;;;;;;;4.90;1.20;;;;;;;;;;5031782;28;20492;-76
2023/01/09 14:07:21;;;;;;;4.70;1.40;;;;;;;;;;5034642;28;20030;-76
2023/01/09 14:09:51;;;;;;;5.63;1.33;;;;;;;;;;5036235;28;20049;-76
2023/01/09 14:12:19;;;;;;;5.15;1.40;;;;;;;;;;5044840;28;20033;-77
2023/01/09 14:14:45;;;;;;;3.90;1.75;;;;;;;;;;5035968;28;20100;-76
2023/01/09 14:17:16;;;;;;;6.18;1.33;;;;;;;;;;5033950;28;20029;-77
2023/01/09 14:19:42;;;;;;;;;;;;;;;;;;5036518;28;20122;-77
2023/01/09 14:22:22;;;;;;;5.00;1.30;;;;;;;;;;5035147;28;20399;-78
2023/01/09 14:24:51;;;;;;;11.10;1.30;;;;;;;;;;5035910;28;20061;-77
2023/01/09 14:27:36;;;;;;;10.57;1.63;;;;;;;;;;5035298;28;20041;-77
2023/01/09 14:30:21;;;;;;;7.63;1.50;;;;;;;;;;5035282;28;20107;-74
2023/01/09 14:32:56;;;;;;;7.57;1.77;;;;;;;;;;5035844;28;20095;-77
2023/01/09 14:35:25;;;;;;;8.00;1.42;;;;;;;;;;5034485;28;20037;-77
2023/01/09 14:38:09;;;;;;;10.48;1.48;;;;;;;;;;5034499;28;20516;-77
2023/01/09 14:40:36;;;;;;;9.00;1.50;;;;;;;;;;5034221;28;20042;-77
2023/01/09 14:43:08;;;;;;;8.20;1.33;;;;;;;;;;5036134;28;20480;-77
2023/01/09 14:45:35;;;;;;;6.05;1.65;;;;;;;;;;5034858;28;20052;-75
2023/01/09 14:48:03;;;;;;;7.78;1.60;;;;;;;;;;5036086;28;20038;-76
2023/01/09 14:50:37;;;;;;;6.95;1.70;;;;;;;;;;5036193;28;20045;-77
2023/01/09 14:53:17;;;;;;;6.40;1.55;;;;;;;;;;5036230;28;20048;-75
2023/01/09 14:55:49;;;;;;;6.72;1.52;;;;;;;;;;5051522;28;20076;-76
2023/01/09 14:58:26;;;;;;;6.30;1.50;;;;;;;;;;5055895;28;20474;-76
2023/01/09 15:00:58;;;;;;;5.93;1.60;;;;;;;;;;5056352;28;20107;-76
2023/01/09 15:03:25;;;;;;;2.67;1.00;;;;;;;;;;5056670;28;20071;-78
2023/01/09 15:05:51;;;;;;;3.22;1.00;;;;;;;;;;5055407;28;20072;-76
2023/01/09 15:08:20;;;;;;;3.83;1.13;;;;;;;;;;5050547;28;20065;-77
2023/01/09 15:10:47;;;;;;;1.65;0.73;;;;;;;;;;5035591;28;20057;-77